Time;durP1;ratioP1;P1;durP2;ratioP2;P2;SDS_P1;SDS_P2;PMS_P1;PMS_P2;Temp;Humidity;BMP_temperature;BMP_pressure;BME280_temperature;BME280_humidity;BME280_pressure;Samples;Min_cycle;Max_cycle;Signal;HPM_P1;HPM_P2
2023/06/11 00:00:06;;;;;;;7.70;6.90;;;;;;;15.69;78.86;97194.73;108925;1250;99827;-73
2023/06/11 00:02:34;;;;;;;8.60;7.80;;;;;;;15.70;78.80;97197.45;108610;1256;95790;-74
2023/06/11 00:05:07;;;;;;;14.60;6.90;;;;;;;15.71;78.97;97187.73;108769;1251;96160;-73
2023/06/11 00:07:36;;;;;;;8.40;7.50;;;;;;;15.72;79.00;97184.53;108770;1251;104138;-73
2023/06/11 00:10:06;;;;;;;8.30;7.40;;;;;;;15.70;78.94;97189.30;108764;1251;101186;-73
2023/06/11 00:12:34;;;;;;;9.00;7.10;;;;;;;15.70;79.12;97196.27;108640;1251;99591;-77
2023/06/11 00:15:02;;;;;;;8.10;7.30;;;;;;;15.70;78.94;97193.75;108770;1251;95928;-76
2023/06/11 00:17:33;;;;;;;7.50;6.80;;;;;;;15.69;78.86;97193.05;108753;1251;96025;-74
2023/06/11 00:20:09;;;;;;;7.30;6.30;;;;;;;15.65;78.78;97195.54;108766;1251;103670;-73
2023/06/11 00:22:38;;;;;;;6.60;6.00;;;;;;;15.61;78.46;97189.64;108703;1251;100278;-75
2023/06/11 00:25:08;;;;;;;7.00;6.30;;;;;;;15.60;78.29;97188.53;108545;1251;99923;-74
2023/06/11 00:27:37;;;;;;;7.30;6.00;;;;;;;15.60;78.24;97194.85;108739;1251;95677;-73
2023/06/11 00:30:07;;;;;;;7.20;5.80;;;;;;;15.62;78.15;97191.52;108772;1251;96572;-73
2023/06/11 00:32:36;;;;;;;9.90;6.40;;;;;;;15.63;78.34;97181.63;108734;1251;103754;-73
2023/06/11 00:35:07;;;;;;;6.50;5.70;;;;;;;15.63;78.19;97181.96;108377;1252;100503;-73
2023/06/11 00:37:35;;;;;;;6.50;5.30;;;;;;;15.62;78.00;97179.17;108762;1251;99590;-73
2023/06/11 00:40:04;;;;;;;5.90;5.20;;;;;;;15.62;78.01;97183.84;108763;1251;95619;-73
2023/06/11 00:42:33;;;;;;;6.80;5.90;;;;;;;15.62;78.05;97181.12;108802;1251;96061;-73
2023/06/11 00:45:03;;;;;;;7.00;5.70;;;;;;;15.61;77.89;97185.99;108660;1254;103194;-76
2023/06/11 00:47:32;;;;;;;5.90;5.30;;;;;;;15.60;78.05;97186.19;108586;1251;101393;-76
2023/06/11 00:50:02;;;;;;;6.00;5.20;;;;;;;15.60;77.89;97188.60;108750;1251;99830;-73
2023/06/11 00:52:31;;;;;;;9.80;5.40;;;;;;;15.60;77.89;97193.77;108583;1251;95616;-76
2023/06/11 00:54:59;;;;;;;5.60;5.10;;;;;;;15.60;77.76;97199.58;108768;1251;96036;-73
2023/06/11 00:57:27;;;;;;;5.90;5.30;;;;;;;15.60;77.72;97197.90;108856;1251;103259;-73
2023/06/11 00:59:57;;;;;;;7.50;5.60;;;;;;;15.61;77.76;97196.66;108826;1251;99875;-74
2023/06/11 01:02:31;;;;;;;5.50;5.00;;;;;;;15.61;77.80;97192.85;108749;1251;100185;-76
2023/06/11 01:05:03;;;;;;;7.10;5.00;;;;;;;15.60;77.63;97197.23;108754;1251;95519;-73
2023/06/11 01:07:37;;;;;;;5.40;4.90;;;;;;;15.57;77.75;97195.02;108574;1251;96584;-73
2023/06/11 01:10:06;;;;;;;8.70;5.60;;;;;;;15.55;77.70;97196.58;108790;1251;103564;-73
2023/06/11 01:12:35;;;;;;;5.60;5.10;;;;;;;15.55;77.81;97193.27;108781;1251;101134;-72
2023/06/11 01:15:03;;;;;;;7.70;5.70;;;;;;;15.56;77.88;97193.34;108721;1251;99931;-76
2023/06/11 01:17:52;;;;;;;6.30;5.60;;;;;;;15.57;77.95;97197.66;108751;1251;95677;-74
2023/06/11 01:20:36;;;;;;;9.00;5.80;;;;;;;15.59;78.10;97200.48;108766;1251;96029;-76
2023/06/11 01:23:26;;;;;;;6.50;5.90;;;;;;;15.57;77.86;97198.57;108820;1251;103419;-73
2023/06/11 01:26:18;;;;;;;8.00;6.50;;;;;;;15.54;77.84;97200.19;108568;1251;101791;-73
2023/06/11 01:28:49;;;;;;;6.60;5.40;;;;;;;15.53;78.14;97200.54;108780;1251;100116;-73
2023/06/11 01:31:19;;;;;;;6.70;6.00;;;;;;;15.52;78.22;97206.25;108754;1251;95587;-73
2023/06/11 01:33:47;;;;;;;6.20;5.60;;;;;;;15.51;78.09;97206.55;108809;1251;96668;-75
2023/06/11 01:36:17;;;;;;;6.30;5.70;;;;;;;15.48;77.89;97205.09;108811;1250;103467;-76
2023/06/11 01:38:45;;;;;;;6.00;5.50;;;;;;;15.47;77.87;97203.20;108785;1251;101205;-77
2023/06/11 01:41:13;;;;;;;7.80;6.20;;;;;;;15.46;78.02;97204.39;108759;1251;99816;-73
2023/06/11 01:43:41;;;;;;;5.60;5.10;;;;;;;15.47;78.09;97202.08;108741;1251;95541;-76
2023/06/11 01:46:10;;;;;;;6.80;5.60;;;;;;;15.48;78.36;97201.92;108831;1251;96015;-75
2023/06/11 01:48:38;;;;;;;6.30;5.60;;;;;;;15.46;78.17;97201.73;108785;1251;103516;-73
2023/06/11 01:51:06;;;;;;;6.80;5.60;;;;;;;15.44;78.10;97197.42;108776;1251;101271;-74
2023/06/11 01:53:35;;;;;;;6.10;5.50;;;;;;;15.44;78.04;97199.33;108753;1251;99917;-76
2023/06/11 01:56:03;;;;;;;7.10;5.50;;;;;;;15.44;78.34;97198.78;108747;1251;95530;-75
2023/06/11 01:58:32;;;;;;;6.10;5.50;;;;;;;15.45;78.21;97196.84;108779;1251;96586;-73
2023/06/11 02:01:02;;;;;;;6.00;5.40;;;;;;;15.46;78.17;97196.66;108746;1251;103548;-73
2023/06/11 02:03:30;;;;;;;6.10;5.50;;;;;;;15.46;77.99;97201.51;108630;1251;101279;-72
2023/06/11 02:05:58;;;;;;;7.50;5.50;;;;;;;15.47;78.21;97202.83;108763;1251;99951;-73
2023/06/11 02:08:27;;;;;;;6.50;5.90;;;;;;;15.47;78.30;97199.89;108751;1251;95648;-73
2023/06/11 02:10:55;;;;;;;6.50;5.70;;;;;;;15.47;78.33;97202.67;108754;1251;96088;-73
2023/06/11 02:13:25;;;;;;;6.70;5.80;;;;;;;15.46;78.36;97204.40;108730;1251;103656;-73
2023/06/11 02:15:53;;;;;;;8.10;6.00;;;;;;;15.44;78.37;97206.23;108808;1251;101280;-73
2023/06/11 02:18:21;;;;;;;5.60;5.10;;;;;;;15.41;78.74;97205.25;108563;1251;99822;-73
2023/06/11 02:20:49;;;;;;;5.90;5.30;;;;;;;15.39;78.76;97204.55;108589;1251;95598;-73
2023/06/11 02:23:17;;;;;;;5.70;5.20;;;;;;;15.38;78.70;97205.23;108809;1251;95991;-75
2023/06/11 02:25:45;;;;;;;5.70;5.20;;;;;;;15.38;79.00;97203.52;108764;1251;103815;-75
2023/06/11 02:28:14;;;;;;;6.50;5.90;;;;;;;15.38;79.00;97205.02;108794;1251;101267;-73
2023/06/11 02:30:42;;;;;;;6.20;5.60;;;;;;;15.36;79.03;97204.57;108749;1251;99552;-76
2023/06/11 02:33:10;;;;;;;6.00;5.40;;;;;;;15.36;78.92;97206.62;108708;1251;95538;-73
2023/06/11 02:35:38;;;;;;;6.30;5.70;;;;;;;15.36;79.02;97206.03;108797;1251;96479;-73
2023/06/11 02:38:06;;;;;;;6.10;5.50;;;;;;;15.36;79.17;97206.45;108786;1250;103529;-76
2023/06/11 02:40:34;;;;;;;7.30;5.70;;;;;;;15.35;79.25;97205.40;108604;1251;101174;-73
2023/06/11 02:43:02;;;;;;;7.10;5.70;;;;;;;15.34;79.45;97211.44;108782;1251;99857;-74
2023/06/11 02:45:30;;;;;;;6.60;5.90;;;;;;;15.34;79.64;97213.77;108753;1251;95557;-73
2023/06/11 02:47:58;;;;;;;7.80;5.70;;;;;;;15.36;79.63;97214.98;108583;1251;96784;-74
2023/06/11 02:50:26;;;;;;;8.10;5.90;;;;;;;15.35;79.51;97220.46;108758;1251;103530;-73
2023/06/11 02:52:54;;;;;;;6.80;6.20;;;;;;;15.32;79.59;97219.37;108762;1251;101342;-75
2023/06/11 02:55:22;;;;;;;8.30;7.00;;;;;;;15.33;79.80;97214.04;108765;1251;99984;-73
2023/06/11 02:57:50;;;;;;;9.90;8.60;;;;;;;15.32;79.85;97217.13;108747;1251;95545;-75
2023/06/11 03:00:19;;;;;;;14.20;12.70;;;;;;;15.30;79.89;97218.34;108779;1251;96019;-73
2023/06/11 03:02:47;;;;;;;14.70;13.30;;;;;;;15.30;79.86;97218.76;108763;1251;103470;-73
2023/06/11 03:05:15;;;;;;;16.30;14.50;;;;;;;15.30;80.05;97221.38;108771;1251;101426;-76
2023/06/11 03:07:43;;;;;;;17.40;15.30;;;;;;;15.29;80.13;97224.41;108391;1251;99587;-76
2023/06/11 03:10:11;;;;;;;17.10;15.20;;;;;;;15.27;80.12;97222.52;108773;1251;95734;-74
2023/06/11 03:12:39;;;;;;;17.70;16.00;;;;;;;15.26;80.10;97223.42;108609;1251;96074;-74
2023/06/11 03:15:08;;;;;;;16.50;14.80;;;;;;;15.24;80.11;97226.91;108828;1251;103361;-73
2023/06/11 03:17:36;;;;;;;19.80;16.00;;;;;;;15.23;80.31;97228.09;108784;1251;102015;-74
2023/06/11 03:20:05;;;;;;;19.80;16.60;;;;;;;15.21;80.22;97227.58;108782;1251;98929;-74
2023/06/11 03:22:33;;;;;;;18.60;16.70;;;;;;;15.17;80.30;97231.48;108428;1251;95987;-74
2023/06/11 03:25:01;;;;;;;18.90;17.00;;;;;;;15.14;80.24;97228.48;108792;1251;95987;-75
2023/06/11 03:27:29;;;;;;;20.30;16.70;;;;;;;15.12;80.43;97231.06;108442;1251;103050;-76
2023/06/11 03:29:57;;;;;;;19.10;17.20;;;;;;;15.11;80.54;97235.11;108760;1251;101297;-73
2023/06/11 03:32:25;;;;;;;19.40;17.50;;;;;;;15.10;80.81;97232.88;108573;1251;99063;-76
2023/06/11 03:34:53;;;;;;;19.50;17.50;;;;;;;15.12;80.71;97235.09;108781;1251;95583;-73
2023/06/11 03:37:21;;;;;;;21.50;19.30;;;;;;;15.13;80.53;97236.95;108823;1251;96341;-74
2023/06/11 03:39:49;;;;;;;20.50;18.40;;;;;;;15.11;80.72;97234.36;108830;1251;103694;-73
2023/06/11 03:42:18;;;;;;;23.10;20.60;;;;;;;15.09;80.73;97238.34;108823;1251;101289;-73
2023/06/11 03:44:46;;;;;;;24.00;21.20;;;;;;;15.09;80.87;97240.09;108764;1251;99841;-73
2023/06/11 03:47:14;;;;;;;24.80;22.20;;;;;;;15.09;80.95;97238.18;108744;1251;95547;-72
2023/06/11 03:49:42;;;;;;;27.30;21.80;;;;;;;15.10;81.08;97243.52;108634;1251;96057;-74
2023/06/11 03:52:11;;;;;;;30.70;23.70;;;;;;;15.09;81.07;97239.98;108764;1251;103065;-75
2023/06/11 03:54:39;;;;;;;27.20;23.70;;;;;;;15.08;81.07;97240.95;108786;1251;101370;-73
2023/06/11 03:57:07;;;;;;;26.90;23.50;;;;;;;15.06;81.11;97247.59;108729;1251;99566;-73
2023/06/11 03:59:35;;;;;;;25.20;22.40;;;;;;;15.06;81.38;97246.79;108804;1251;95593;-73
2023/06/11 04:02:03;;;;;;;25.20;22.60;;;;;;;15.06;81.51;97246.25;108620;1251;96119;-72
2023/06/11 04:04:32;;;;;;;25.00;22.40;;;;;;;15.05;81.46;97245.90;108806;1251;103144;-74
2023/06/11 04:07:00;;;;;;;25.20;22.50;;;;;;;15.04;81.48;97249.84;108818;1251;101201;-73
2023/06/11 04:09:29;;;;;;;24.50;22.00;;;;;;;15.02;81.42;97248.65;108788;1251;100058;-76
2023/06/11 04:11:57;;;;;;;24.30;21.80;;;;;;;14.97;81.48;97250.41;108555;1251;95610;-74
2023/06/11 04:14:25;;;;;;;25.00;22.10;;;;;;;14.95;81.76;97255.04;108785;1251;96128;-76
2023/06/11 04:16:53;;;;;;;24.20;21.80;;;;;;;14.96;81.98;97252.69;108848;1251;103223;-75
2023/06/11 04:19:21;;;;;;;23.80;20.80;;;;;;;14.96;82.11;97252.74;108443;1251;101163;-73
2023/06/11 04:21:49;;;;;;;23.60;21.10;;;;;;;14.97;82.02;97252.09;108734;1251;98870;-73
2023/06/11 04:24:17;;;;;;;22.10;19.80;;;;;;;14.96;81.90;97250.79;108552;1253;95603;-73
2023/06/11 04:26:47;;;;;;;22.00;18.60;;;;;;;14.98;81.97;97251.23;108782;1251;96051;-73
2023/06/11 04:29:18;;;;;;;22.40;18.50;;;;;;;15.02;81.96;97254.79;108825;1250;103459;-75
2023/06/11 04:31:47;;;;;;;21.40;18.70;;;;;;;15.05;81.95;97256.05;108781;1251;101047;-73
2023/06/11 04:34:16;;;;;;;19.60;17.60;;;;;;;15.04;81.91;97257.23;108777;1251;99938;-75
2023/06/11 04:36:45;;;;;;;18.50;16.50;;;;;;;15.04;82.08;97259.50;108802;1251;95578;-76
2023/06/11 04:39:14;;;;;;;19.00;17.20;;;;;;;15.06;81.93;97257.55;108811;1251;96034;-75
2023/06/11 04:41:43;;;;;;;20.80;17.70;;;;;;;15.10;82.09;97260.21;108597;1253;103523;-73
2023/06/11 04:44:12;;;;;;;18.20;16.30;;;;;;;15.13;82.08;97261.75;108831;1251;101004;-73
2023/06/11 04:46:40;;;;;;;18.90;16.90;;;;;;;15.14;81.84;97266.16;108443;1251;99696;-73
2023/06/11 04:49:08;;;;;;;18.70;16.70;;;;;;;15.13;81.90;97264.42;108822;1251;95949;-74
2023/06/11 04:51:40;;;;;;;19.20;17.30;;;;;;;15.14;81.89;97263.83;108835;1251;96127;-73
2023/06/11 04:54:08;;;;;;;19.20;17.10;;;;;;;15.13;81.82;97268.32;108829;1251;103530;-74
2023/06/11 04:56:37;;;;;;;18.10;16.30;;;;;;;15.12;81.85;97265.80;108859;1251;101002;-76
2023/06/11 04:59:06;;;;;;;18.30;16.40;;;;;;;15.12;81.94;97267.98;108784;1251;99762;-74
2023/06/11 05:01:37;;;;;;;18.40;16.50;;;;;;;15.13;82.00;97270.38;108849;1251;95570;-73
2023/06/11 05:04:05;;;;;;;19.10;17.10;;;;;;;15.14;82.01;97267.64;108758;1251;95995;-73
2023/06/11 05:06:33;;;;;;;19.10;17.00;;;;;;;15.14;82.06;97266.42;108781;1251;103550;-73
2023/06/11 05:09:01;;;;;;;19.10;17.20;;;;;;;15.10;81.92;97270.56;108819;1251;101276;-73
2023/06/11 05:11:29;;;;;;;19.80;16.80;;;;;;;15.10;82.06;97271.20;108762;1251;99905;-73
2023/06/11 05:13:58;;;;;;;18.70;16.50;;;;;;;15.09;82.09;97273.31;108797;1251;95580;-73
2023/06/11 05:16:26;;;;;;;20.20;17.10;;;;;;;15.09;82.06;97275.05;108769;1251;96042;-73
2023/06/11 05:18:54;;;;;;;19.80;17.10;;;;;;;15.12;82.21;97276.50;108761;1251;103484;-74
2023/06/11 05:21:22;;;;;;;19.40;17.30;;;;;;;15.14;82.32;97277.76;108741;1251;100995;-75
2023/06/11 05:23:51;;;;;;;21.80;16.50;;;;;;;15.16;82.34;97277.63;108415;1251;99711;-76
2023/06/11 05:26:31;;;;;;;21.00;17.50;;;;;;;15.16;82.31;97278.02;108744;1251;95815;-75
2023/06/11 05:29:00;;;;;;;22.00;18.20;;;;;;;15.14;82.26;97278.67;108763;1251;96022;-73
2023/06/11 05:31:29;;;;;;;20.20;17.60;;;;;;;15.13;82.37;97282.13;108767;1251;102688;-74
2023/06/11 05:33:58;;;;;;;18.80;16.90;;;;;;;15.13;82.47;97285.39;108793;1251;101397;-73
2023/06/11 05:36:27;;;;;;;21.20;18.50;;;;;;;15.12;82.52;97288.91;108666;1251;99909;-76
2023/06/11 05:38:55;;;;;;;20.00;17.70;;;;;;;15.10;82.47;97284.46;108778;1251;95578;-75
2023/06/11 05:41:23;;;;;;;20.20;18.10;;;;;;;15.10;82.73;97284.52;108827;1251;96045;-73
2023/06/11 05:43:52;;;;;;;19.10;17.10;;;;;;;15.08;82.65;97285.05;108847;1251;110748;-72
2023/06/11 05:46:23;;;;;;;19.20;17.20;;;;;;;15.08;82.69;97289.99;108797;1251;101449;-73
2023/06/11 05:48:52;;;;;;;20.40;18.30;;;;;;;15.08;82.84;97289.23;108796;1251;100048;-73
2023/06/11 05:51:20;;;;;;;18.90;17.00;;;;;;;15.10;82.96;97293.33;108785;1251;95591;-73
2023/06/11 05:53:48;;;;;;;20.10;18.00;;;;;;;15.09;82.94;97299.52;108792;1251;95970;-73
2023/06/11 05:56:16;;;;;;;19.60;17.50;;;;;;;15.08;83.13;97299.99;108819;1251;103414;-74
2023/06/11 05:58:44;;;;;;;20.60;18.30;;;;;;;15.06;83.12;97299.89;108771;1251;101470;-73
2023/06/11 06:01:12;;;;;;;20.40;18.20;;;;;;;15.04;83.06;97306.00;108651;1251;98797;-73
2023/06/11 06:03:41;;;;;;;20.70;18.50;;;;;;;15.05;83.18;97302.01;108884;1250;95704;-75
2023/06/11 06:06:10;;;;;;;21.50;18.60;;;;;;;15.07;83.20;97303.06;108888;1250;96086;-75
2023/06/11 06:08:38;;;;;;;22.70;19.60;;;;;;;15.07;83.16;97306.06;108961;1250;103246;-73
2023/06/11 06:11:06;;;;;;;20.90;18.60;;;;;;;15.08;83.29;97307.60;108698;1250;101396;-73
2023/06/11 06:13:34;;;;;;;21.70;19.20;;;;;;;15.07;83.08;97308.84;108902;1251;100137;-73
2023/06/11 06:16:03;;;;;;;22.30;18.80;;;;;;;15.06;83.17;97311.10;108788;1252;96076;-73
2023/06/11 06:18:33;;;;;;;20.50;18.30;;;;;;;15.08;83.26;97314.13;108825;1250;95986;-74
2023/06/11 06:21:01;;;;;;;20.30;18.20;;;;;;;15.07;83.32;97314.23;108859;1249;103030;-74
2023/06/11 06:23:29;;;;;;;20.00;17.90;;;;;;;15.08;83.35;97320.70;108873;1250;101029;-74
2023/06/11 06:25:58;;;;;;;18.80;16.50;;;;;;;15.10;83.43;97321.88;108890;1250;99985;-73
2023/06/11 06:28:26;;;;;;;21.20;17.10;;;;;;;15.12;83.43;97324.40;108833;1250;95645;-74
2023/06/11 06:30:54;;;;;;;22.00;18.40;;;;;;;15.13;83.39;97326.84;108919;1250;95998;-73
2023/06/11 06:33:23;;;;;;;18.30;16.40;;;;;;;15.16;83.43;97330.47;108894;1250;103456;-73
2023/06/11 06:35:52;;;;;;;20.20;17.40;;;;;;;15.18;83.49;97332.92;108700;1250;100407;-73
2023/06/11 06:38:20;;;;;;;17.90;16.00;;;;;;;15.22;83.22;97333.08;108922;1250;99944;-73
2023/06/11 06:40:48;;;;;;;17.40;15.60;;;;;;;15.25;83.18;97334.73;108905;1250;95633;-73
2023/06/11 06:43:16;;;;;;;17.20;15.10;;;;;;;15.28;83.09;97338.54;108920;1250;96009;-74
2023/06/11 06:45:44;;;;;;;17.30;15.30;;;;;;;15.30;83.01;97341.08;108906;1250;103313;-75
2023/06/11 06:48:12;;;;;;;18.50;15.50;;;;;;;15.32;82.92;97340.05;108896;1249;101337;-73
2023/06/11 06:50:40;;;;;;;17.20;15.20;;;;;;;15.30;82.87;97343.96;108630;1250;100211;-72
2023/06/11 06:53:09;;;;;;;16.40;14.80;;;;;;;15.29;82.78;97342.69;108645;1250;95677;-73
2023/06/11 06:55:37;;;;;;;15.80;14.10;;;;;;;15.29;82.58;97341.98;108887;1250;96196;-75
2023/06/11 06:58:05;;;;;;;15.90;13.00;;;;;;;15.29;82.53;97342.10;108972;1250;103594;-73
2023/06/11 07:00:34;;;;;;;14.80;13.00;;;;;;;15.31;82.78;97343.45;108934;1250;101457;-74
2023/06/11 07:03:02;;;;;;;14.90;13.30;;;;;;;15.35;82.57;97341.60;108858;1250;99535;-74
2023/06/11 07:05:30;;;;;;;14.00;12.50;;;;;;;15.37;82.44;97338.77;108843;1250;95627;-73
2023/06/11 07:07:58;;;;;;;14.50;13.00;;;;;;;15.42;82.48;97342.23;108915;1250;96345;-75
2023/06/11 07:10:27;;;;;;;14.50;12.40;;;;;;;15.48;82.53;97341.03;108580;1250;103612;-73
2023/06/11 07:12:55;;;;;;;16.00;13.00;;;;;;;15.55;82.44;97341.35;108892;1250;101078;-73
2023/06/11 07:15:24;;;;;;;13.90;12.40;;;;;;;15.57;82.03;97343.80;108800;1251;98720;-73
2023/06/11 07:17:52;;;;;;;13.80;12.40;;;;;;;15.62;82.16;97348.45;108589;1251;95907;-73
2023/06/11 07:20:20;;;;;;;13.20;11.90;;;;;;;15.66;81.84;97346.58;108798;1251;96005;-75
2023/06/11 07:22:48;;;;;;;13.70;12.40;;;;;;;15.68;81.72;97348.04;108795;1251;103502;-74
2023/06/11 07:25:17;;;;;;;17.70;12.70;;;;;;;15.71;81.67;97353.19;108602;1251;191293;-75
2023/06/11 07:27:45;;;;;;;14.20;12.20;;;;;;;15.74;81.72;97354.11;108768;1251;99936;-76
2023/06/11 07:30:14;;;;;;;13.60;12.20;;;;;;;15.77;81.62;97350.36;108767;1251;95579;-73
2023/06/11 07:32:42;;;;;;;12.70;11.40;;;;;;;15.80;81.50;97352.81;108606;1251;96068;-74
2023/06/11 07:35:10;;;;;;;13.10;11.80;;;;;;;15.85;81.55;97353.77;108806;1251;103470;-74
2023/06/11 07:37:38;;;;;;;14.40;12.00;;;;;;;15.90;81.40;97353.36;108766;1251;101232;-75
2023/06/11 07:40:07;;;;;;;12.30;11.00;;;;;;;15.98;81.50;97355.02;108726;1251;99920;-74
2023/06/11 07:42:35;;;;;;;12.60;11.30;;;;;;;16.12;81.68;97351.48;108774;1251;95518;-75
2023/06/11 07:45:03;;;;;;;11.60;10.50;;;;;;;16.25;81.29;97353.34;108830;1251;95998;-74
2023/06/11 07:47:31;;;;;;;11.70;10.60;;;;;;;16.31;80.91;97355.43;108802;1251;103145;-73
2023/06/11 07:49:59;;;;;;;11.90;10.70;;;;;;;16.32;80.71;97353.10;108807;1251;101294;-73
2023/06/11 07:52:28;;;;;;;11.00;9.70;;;;;;;16.32;80.47;97356.09;108782;1251;99720;-74
2023/06/11 07:54:56;;;;;;;12.10;9.90;;;;;;;16.30;80.45;97353.13;108769;1251;95588;-73
2023/06/11 07:57:24;;;;;;;12.10;10.00;;;;;;;16.27;80.22;97354.17;108749;1253;96425;-73
2023/06/11 07:59:53;;;;;;;10.70;8.80;;;;;;;16.29;80.22;97353.23;108500;1252;103070;-74
2023/06/11 08:02:22;;;;;;;9.60;8.60;;;;;;;16.28;80.03;97356.05;108785;1251;101727;-73
2023/06/11 08:04:50;;;;;;;11.60;9.40;;;;;;;16.27;80.04;97355.05;108814;1251;100397;-73
2023/06/11 08:07:18;;;;;;;11.50;10.10;;;;;;;16.27;79.81;97360.83;108741;1251;95882;-75
2023/06/11 08:09:47;;;;;;;10.40;9.30;;;;;;;16.26;79.70;97363.86;108793;1251;96244;-73
2023/06/11 08:12:15;;;;;;;9.90;8.90;;;;;;;16.28;79.80;97362.31;108777;1251;111895;-72
2023/06/11 08:14:43;;;;;;;10.20;9.20;;;;;;;16.27;79.44;97369.16;108809;1251;100571;-76
2023/06/11 08:17:11;;;;;;;10.70;9.20;;;;;;;16.27;79.40;97369.76;108479;1251;99571;-73
2023/06/11 08:19:39;;;;;;;11.20;8.90;;;;;;;16.32;79.56;97373.15;108758;1251;95573;-74
2023/06/11 08:22:07;;;;;;;10.50;9.50;;;;;;;16.37;79.52;97373.98;108843;1251;96008;-73
2023/06/11 08:24:35;;;;;;;14.00;9.80;;;;;;;16.39;79.30;97371.04;108844;1251;103628;-73
2023/06/11 08:27:03;;;;;;;11.10;9.50;;;;;;;16.42;79.02;97370.31;108844;1251;101283;-73
2023/06/11 08:29:32;;;;;;;14.00;9.50;;;;;;;16.49;79.22;97372.28;108780;1251;99670;-74
2023/06/11 08:32:00;;;;;;;10.10;9.10;;;;;;;16.54;79.21;97374.04;108749;1251;95628;-74
2023/06/11 08:34:28;;;;;;;10.70;9.60;;;;;;;16.64;79.13;97374.38;108789;1251;96012;-74
2023/06/11 08:36:57;;;;;;;13.20;8.90;;;;;;;16.78;79.18;97374.91;108626;1251;103555;-76
2023/06/11 08:39:25;;;;;;;10.70;9.40;;;;;;;16.94;79.34;97371.79;108798;1251;101429;-73
2023/06/11 08:41:54;;;;;;;12.10;9.90;;;;;;;17.13;79.03;97372.36;108776;1251;99848;-75
2023/06/11 08:44:23;;;;;;;11.20;9.00;;;;;;;17.23;78.72;97376.10;108797;1251;95610;-74
2023/06/11 08:46:53;;;;;;;10.20;9.00;;;;;;;17.27;78.30;97380.11;108801;1251;95980;-74
2023/06/11 08:49:23;;;;;;;10.80;9.10;;;;;;;17.28;77.88;97375.66;108796;1255;102572;-76
2023/06/11 08:51:51;;;;;;;9.80;8.80;;;;;;;17.28;77.90;97377.46;108651;1250;101300;-74
2023/06/11 08:54:20;;;;;;;11.00;8.30;;;;;;;17.24;77.39;97377.10;108896;1250;99984;-74
2023/06/11 08:56:48;;;;;;;9.20;8.30;;;;;;;17.25;77.30;97374.55;108867;1254;95569;-73
2023/06/11 08:59:20;;;;;;;10.30;8.40;;;;;;;17.47;77.57;97378.55;108657;1250;96660;-73
2023/06/11 09:01:50;;;;;;;11.10;8.80;;;;;;;17.66;77.38;97373.93;108847;1250;103613;-74
2023/06/11 09:04:20;;;;;;;12.40;8.70;;;;;;;17.80;77.05;97376.20;108921;1250;101313;-73
2023/06/11 09:07:00;;;;;;;10.20;8.30;;;;;;;17.88;76.70;97373.39;108783;1253;100015;-74
2023/06/11 09:09:29;;;;;;;12.90;9.00;;;;;;;17.97;76.70;97377.14;108858;1250;95529;-74
2023/06/11 09:11:57;;;;;;;9.10;7.80;;;;;;;18.04;76.61;97377.30;108872;1250;96033;-73
2023/06/11 09:14:25;;;;;;;9.50;8.20;;;;;;;18.09;76.29;97380.48;108847;1251;103507;-75
2023/06/11 09:16:54;;;;;;;9.10;7.80;;;;;;;18.12;76.09;97381.15;108824;1251;100974;-74
2023/06/11 09:19:22;;;;;;;10.40;8.00;;;;;;;18.16;76.04;97382.92;108476;1260;99096;-75
2023/06/11 09:21:55;;;;;;;9.70;8.40;;;;;;;18.20;76.05;97375.92;108761;1255;95540;-75
2023/06/11 09:24:25;;;;;;;8.20;7.40;;;;;;;18.25;75.86;97375.09;108825;1251;96084;-73
2023/06/11 09:26:59;;;;;;;9.30;7.80;;;;;;;18.26;75.52;97370.89;108796;1251;103200;-73
2023/06/11 09:29:29;;;;;;;7.80;7.00;;;;;;;18.32;75.39;97371.21;108761;1251;101466;-75
2023/06/11 09:32:08;;;;;;;7.70;6.90;;;;;;;18.45;75.19;97370.38;108772;1251;99917;-74
2023/06/11 09:34:37;;;;;;;9.00;7.00;;;;;;;18.56;75.10;97372.71;108514;1251;95599;-75
2023/06/11 09:37:05;;;;;;;10.50;6.90;;;;;;;18.67;74.76;97373.08;108520;1251;96155;-76
2023/06/11 09:39:33;;;;;;;11.40;7.40;;;;;;;18.67;74.36;97378.11;108794;1251;103567;-74
2023/06/11 09:42:02;;;;;;;8.20;7.10;;;;;;;18.62;73.52;97376.10;108802;1251;101238;-74
2023/06/11 09:44:34;;;;;;;7.50;6.80;;;;;;;18.55;73.49;97374.78;108509;1251;99907;-74
2023/06/11 09:47:04;;;;;;;8.00;7.20;;;;;;;18.48;73.40;97371.16;108859;1252;96115;-73
2023/06/11 09:49:32;;;;;;;7.80;6.80;;;;;;;18.54;73.76;97369.46;108866;1253;95602;-73
2023/06/11 09:52:01;;;;;;;13.10;7.90;;;;;;;18.71;73.51;97369.59;108831;1251;103504;-76
2023/06/11 09:54:30;;;;;;;7.20;6.60;;;;;;;18.76;72.99;97371.38;108800;1251;101283;-76
2023/06/11 09:56:59;;;;;;;10.80;7.30;;;;;;;18.76;72.98;97372.30;108760;1253;99951;-76
2023/06/11 09:59:27;;;;;;;8.60;6.10;;;;;;;18.76;73.11;97374.05;108816;1252;95547;-73
2023/06/11 10:01:57;;;;;;;7.40;6.20;;;;;;;18.76;73.01;97379.52;108479;1252;96046;-74
2023/06/11 10:04:25;;;;;;;7.10;6.10;;;;;;;18.76;72.87;97378.70;108883;1250;103674;-73
2023/06/11 10:06:53;;;;;;;6.90;6.20;;;;;;;18.63;72.66;97379.71;108909;1250;101182;-77
2023/06/11 10:09:22;;;;;;;7.00;6.30;;;;;;;18.47;72.32;97382.96;108887;1250;98987;-74
2023/06/11 10:11:50;;;;;;;7.60;6.90;;;;;;;18.45;72.47;97381.20;108504;1253;96588;-76
2023/06/11 10:14:20;;;;;;;7.50;6.00;;;;;;;18.69;72.96;97376.35;108734;1252;96039;-74
2023/06/11 10:16:54;;;;;;;6.60;6.00;;;;;;;19.03;73.15;97377.98;108448;1252;103047;-74
2023/06/11 10:19:23;;;;;;;7.80;5.70;;;;;;;19.44;73.12;97379.82;108504;1252;101282;-74
2023/06/11 10:21:52;;;;;;;8.20;6.00;;;;;;;19.66;72.11;97383.61;108483;1253;100005;-73
2023/06/11 10:24:26;;;;;;;8.90;6.00;;;;;;;19.73;71.45;97383.59;108781;1252;95722;-74
2023/06/11 10:27:14;;;;;;;7.00;6.10;;;;;;;19.78;71.09;97386.45;108774;1252;96039;-76
2023/06/11 10:29:47;;;;;;;8.90;6.40;;;;;;;19.75;70.83;97385.73;108585;1253;103251;-73
2023/06/11 10:32:23;;;;;;;7.40;6.00;;;;;;;19.68;70.40;97385.48;108608;1251;101479;-73
2023/06/11 10:34:56;;;;;;;6.90;5.60;;;;;;;19.63;70.51;97383.84;108807;1252;99916;-73
2023/06/11 10:37:42;;;;;;;6.80;5.50;;;;;;;19.76;70.62;97382.94;108768;1253;95530;-74
2023/06/11 10:40:10;;;;;;;7.70;6.00;;;;;;;20.17;70.73;97380.14;108810;1253;96539;-76
2023/06/11 10:42:41;;;;;;;6.60;5.30;;;;;;;20.68;70.49;97374.17;108836;1252;103557;-73
2023/06/11 10:45:11;;;;;;;6.60;5.60;;;;;;;20.92;69.18;97376.70;108817;1253;100999;-73
2023/06/11 10:47:47;;;;;;;6.20;5.40;;;;;;;20.91;68.36;97379.83;108790;1253;98948;-73
2023/06/11 10:50:18;;;;;;;5.80;4.80;;;;;;;20.81;67.77;97377.66;108845;1253;95575;-74
2023/06/11 10:52:57;;;;;;;5.10;4.60;;;;;;;20.72;67.49;97377.52;108822;1253;96087;-75
2023/06/11 10:55:29;;;;;;;5.90;4.80;;;;;;;20.68;67.90;97374.05;108710;1252;103863;-73
2023/06/11 10:57:59;;;;;;;9.40;4.60;;;;;;;20.57;67.49;97379.39;108859;1252;101394;-77
2023/06/11 11:00:32;;;;;;;8.40;4.70;;;;;;;20.67;67.59;97386.73;108793;1253;99682;-74
2023/06/11 11:03:03;;;;;;;7.40;4.80;;;;;;;20.88;67.57;97380.06;108500;1252;95662;-73
2023/06/11 11:05:32;;;;;;;5.90;4.60;;;;;;;20.88;66.66;97375.17;108834;1253;96071;-74
2023/06/11 11:08:01;;;;;;;4.70;4.30;;;;;;;20.82;66.36;97371.62;108803;1253;103450;-74
2023/06/11 11:10:30;;;;;;;7.40;5.00;;;;;;;20.99;66.85;97371.58;108913;1250;110087;-74
2023/06/11 11:12:58;;;;;;;7.10;4.60;;;;;;;21.11;66.34;97360.35;108947;1250;99962;-73
2023/06/11 11:15:26;;;;;;;8.30;6.80;;;;;;;21.12;65.51;97356.79;108499;1251;95608;-77
2023/06/11 11:17:56;;;;;;;8.60;5.40;;;;;;;21.23;65.97;97355.61;108789;1251;95993;-73
2023/06/11 11:20:24;;;;;;;8.30;6.20;;;;;;;21.47;66.04;97358.46;108855;1255;103550;-74
2023/06/11 11:22:56;;;;;;;6.40;5.30;;;;;;;21.55;65.18;97354.86;108751;1251;101293;-73